Time;durP1;ratioP1;P1;durP2;ratioP2;P2;SDS_P1;SDS_P2;PMS_P1;PMS_P2;Temp;Humidity;BMP_temperature;BMP_pressure;BME280_temperature;BME280_humidity;BME280_pressure;Samples;Min_cycle;Max_cycle;Signal;HPM_P1;HPM_P2
2021/07/07 00:01:32;;;;;;;18.13;12.00;;;26.60;59.10;;;;;;6174626;28;84762;-65
2021/07/07 00:04:32;;;;;;;16.00;11.80;;;26.60;59.30;;;;;;6178278;28;83734;-68
2021/07/07 00:07:33;;;;;;;24.77;11.50;;;26.50;59.20;;;;;;6164347;28;83685;-67
2021/07/07 00:10:34;;;;;;;15.05;12.07;;;26.50;59.10;;;;;;6174070;28;83498;-67
2021/07/07 00:13:35;;;;;;;13.43;10.93;;;26.50;59.10;;;;;;6176613;28;83228;-67
2021/07/07 00:16:35;;;;;;;15.32;11.63;;;26.60;58.90;;;;;;6179316;28;83020;-66
2021/07/07 00:19:36;;;;;;;14.07;11.32;;;26.60;59.10;;;;;;6177034;28;83129;-67
2021/07/07 00:22:36;;;;;;;14.25;11.52;;;26.50;59.10;;;;;;6167726;28;83970;-66
2021/07/07 00:25:37;;;;;;;14.15;10.93;;;26.50;58.80;;;;;;6180175;28;84033;-66
2021/07/07 00:28:37;;;;;;;15.32;11.65;;;26.60;58.60;;;;;;6171708;28;83124;-66
2021/07/07 00:31:38;;;;;;;15.55;11.45;;;26.60;58.60;;;;;;6179339;28;83127;-66
2021/07/07 00:34:38;;;;;;;14.85;11.35;;;26.60;58.40;;;;;;6167026;28;84015;-69
2021/07/07 00:37:39;;;;;;;13.80;11.15;;;26.60;58.30;;;;;;6175984;28;82951;-67
2021/07/07 00:40:39;;;;;;;15.20;11.63;;;26.60;58.40;;;;;;6174217;28;89199;-67
2021/07/07 00:43:40;;;;;;;14.63;12.55;;;26.60;58.30;;;;;;6167278;28;82994;-67
2021/07/07 00:46:45;;;;;;;16.70;12.15;;;26.60;58.60;;;;;;6172506;28;83402;-66
2021/07/07 00:49:45;;;;;;;17.58;11.40;;;26.60;58.50;;;;;;6175926;28;85366;-66
2021/07/07 00:52:46;;;;;;;13.13;11.43;;;26.60;58.50;;;;;;6178420;28;82951;-66
2021/07/07 00:55:46;;;;;;;16.67;12.02;;;26.60;59.00;;;;;;6177434;28;83624;-66
2021/07/07 00:58:47;;;;;;;14.02;12.02;;;26.60;58.50;;;;;;6175318;28;84199;-66
2021/07/07 01:01:48;;;;;;;14.70;12.05;;;26.60;58.60;;;;;;6171671;28;84353;-67
2021/07/07 01:04:48;;;;;;;14.77;11.10;;;26.60;58.10;;;;;;6174643;28;83892;-67
2021/07/07 01:07:49;;;;;;;16.02;11.38;;;26.60;58.10;;;;;;6178808;28;83016;-67
2021/07/07 01:10:49;;;;;;;15.02;12.38;;;26.70;58.00;;;;;;6171244;28;84343;-67
2021/07/07 01:13:50;;;;;;;13.25;11.20;;;26.60;57.90;;;;;;6176424;28;83952;-66
2021/07/07 01:16:51;;;;;;;16.50;12.55;;;26.60;57.80;;;;;;6169870;28;84791;-67
2021/07/07 01:19:51;;;;;;;19.35;12.52;;;26.60;57.80;;;;;;6178243;28;83042;-67
2021/07/07 01:22:52;;;;;;;17.52;12.27;;;26.60;57.70;;;;;;6168416;28;84558;-67
2021/07/07 01:25:52;;;;;;;20.80;11.48;;;26.60;57.60;;;;;;6175806;28;83092;-66
2021/07/07 01:28:53;;;;;;;13.85;11.43;;;26.60;57.60;;;;;;6176287;28;84033;-66
2021/07/07 01:31:53;;;;;;;15.65;12.23;;;26.50;57.80;;;;;;6181549;28;83070;-67
2021/07/07 01:34:54;;;;;;;15.25;12.02;;;26.50;57.80;;;;;;6167299;28;82932;-66
2021/07/07 01:37:54;;;;;;;18.83;12.45;;;26.50;57.90;;;;;;6180324;28;83449;-68
2021/07/07 01:40:56;;;;;;;15.40;12.48;;;26.40;57.90;;;;;;6177327;28;84417;-67
2021/07/07 01:43:56;;;;;;;16.23;11.80;;;26.40;57.60;;;;;;6180815;28;84499;-67
2021/07/07 01:46:57;;;;;;;19.52;12.35;;;26.40;57.80;;;;;;6174703;28;84019;-67
2021/07/07 01:49:57;;;;;;;13.52;11.70;;;26.50;57.50;;;;;;6178030;28;83639;-67
2021/07/07 01:52:58;;;;;;;17.08;12.27;;;26.40;57.80;;;;;;6180624;28;83506;-66
2021/07/07 01:55:58;;;;;;;15.52;12.85;;;26.40;57.90;;;;;;6180282;28;83511;-67
2021/07/07 01:58:59;;;;;;;17.00;13.82;;;26.40;57.90;;;;;;6176914;28;84450;-67
2021/07/07 02:02:00;;;;;;;16.33;13.55;;;26.40;58.00;;;;;;6180469;28;83411;-66
2021/07/07 02:05:00;;;;;;;21.08;13.65;;;26.30;58.20;;;;;;6175820;28;83781;-67
2021/07/07 02:08:01;;;;;;;19.25;13.52;;;26.30;58.30;;;;;;6174156;28;82989;-66
2021/07/07 02:11:01;;;;;;;15.38;13.00;;;26.20;58.30;;;;;;6170906;28;83037;-67
2021/07/07 02:14:02;;;;;;;18.27;13.52;;;26.30;58.20;;;;;;6179600;28;83320;-66
2021/07/07 02:17:02;;;;;;;17.13;13.80;;;26.30;58.10;;;;;;6181922;28;84114;-66
2021/07/07 02:20:03;;;;;;;18.23;13.45;;;26.30;58.00;;;;;;6169148;28;84452;-66
2021/07/07 02:23:03;;;;;;;19.17;12.52;;;26.30;58.00;;;;;;6176341;28;83342;-67
2021/07/07 02:26:04;;;;;;;19.33;13.82;;;26.30;58.10;;;;;;6180265;28;83061;-67
2021/07/07 02:29:04;;;;;;;17.80;14.18;;;26.20;57.80;;;;;;6171654;28;84081;-67
2021/07/07 02:32:05;;;;;;;19.50;14.43;;;26.20;58.00;;;;;;6178108;28;83101;-68
2021/07/07 02:35:05;;;;;;;15.40;13.13;;;26.20;58.00;;;;;;6179753;28;84475;-67
2021/07/07 02:38:06;;;;;;;18.10;14.02;;;26.20;57.90;;;;;;6180372;28;83045;-67
2021/07/07 02:41:06;;;;;;;21.17;12.32;;;26.20;58.40;;;;;;6180125;28;83365;-66
2021/07/07 02:44:07;;;;;;;17.27;13.73;;;26.30;57.80;;;;;;6179829;28;83395;-66
2021/07/07 02:47:07;;;;;;;20.33;13.05;;;26.20;58.00;;;;;;6179259;28;83014;-67
2021/07/07 02:50:08;;;;;;;19.92;13.95;;;26.20;58.10;;;;;;6175042;28;83479;-67
2021/07/07 02:53:09;;;;;;;15.48;13.07;;;26.20;57.80;;;;;;6167181;28;83182;-65
2021/07/07 02:56:09;;;;;;;17.42;13.43;;;26.20;57.70;;;;;;6173206;28;83540;-66
2021/07/07 02:59:10;;;;;;;20.10;14.38;;;26.20;57.90;;;;;;6180857;28;83121;-66
2021/07/07 03:02:10;;;;;;;16.98;13.10;;;26.20;57.90;;;;;;6172145;28;82725;-66
2021/07/07 03:05:11;;;;;;;18.65;13.38;;;26.20;57.80;;;;;;6179820;28;86298;-66
2021/07/07 03:08:11;;;;;;;16.95;12.98;;;26.20;57.60;;;;;;6172966;28;83179;-66
2021/07/07 03:11:12;;;;;;;19.35;12.43;;;26.20;57.50;;;;;;6174077;28;83402;-67
2021/07/07 03:14:12;;;;;;;18.83;13.43;;;26.20;57.30;;;;;;6180309;28;83588;-67
2021/07/07 03:17:13;;;;;;;15.88;12.95;;;26.20;57.20;;;;;;6171460;28;83548;-66
2021/07/07 03:20:13;;;;;;;17.08;12.68;;;26.20;57.20;;;;;;6163982;28;82957;-66
2021/07/07 03:23:14;;;;;;;16.70;12.98;;;26.30;57.30;;;;;;6172944;28;82957;-66
2021/07/07 03:26:15;;;;;;;15.82;13.30;;;26.30;57.20;;;;;;6170062;28;83115;-66
2021/07/07 03:29:15;;;;;;;18.80;13.50;;;26.30;57.20;;;;;;6173680;28;84409;-65
2021/07/07 03:32:16;;;;;;;16.45;13.52;;;26.30;57.20;;;;;;6179454;28;83014;-66
2021/07/07 03:35:16;;;;;;;21.02;13.02;;;26.30;57.20;;;;;;6173057;28;83012;-67
2021/07/07 03:38:17;;;;;;;17.10;12.25;;;26.40;57.30;;;;;;6178147;28;83765;-66
2021/07/07 03:41:17;;;;;;;17.88;12.27;;;26.40;57.50;;;;;;6168390;28;83967;-67
2021/07/07 03:44:18;;;;;;;16.20;12.73;;;26.40;57.30;;;;;;6169637;28;83172;-68
2021/07/07 03:47:19;;;;;;;14.55;11.82;;;26.40;57.10;;;;;;6179771;28;83323;-68
2021/07/07 03:50:19;;;;;;;13.80;11.65;;;26.50;57.90;;;;;;6170783;28;83853;-65
2021/07/07 03:53:20;;;;;;;17.30;12.45;;;26.50;57.20;;;;;;6171478;28;84311;-64
2021/07/07 03:56:20;;;;;;;14.27;11.88;;;26.50;57.50;;;;;;6178025;28;83044;-65
2021/07/07 03:59:21;;;;;;;15.77;11.73;;;26.50;58.00;;;;;;6176379;28;83787;-65
2021/07/07 04:02:21;;;;;;;24.40;12.93;;;26.40;58.00;;;;;;6178427;28;83026;-67
2021/07/07 04:05:22;;;;;;;16.85;11.95;;;26.40;57.50;;;;;;6165635;28;83706;-67
2021/07/07 04:08:22;;;;;;;18.05;13.02;;;26.40;57.50;;;;;;6177688;28;83393;-67
2021/07/07 04:11:23;;;;;;;17.58;12.13;;;26.50;58.00;;;;;;6177570;28;83513;-67
2021/07/07 04:14:24;;;;;;;14.60;11.35;;;26.40;57.80;;;;;;6175832;28;83441;-67
2021/07/07 04:17:24;;;;;;;19.02;12.05;;;26.50;57.80;;;;;;6175312;28;84291;-67
2021/07/07 04:20:25;;;;;;;17.30;12.98;;;26.40;57.40;;;;;;6176411;28;82790;-68
2021/07/07 04:23:25;;;;;;;16.40;12.23;;;26.40;57.50;;;;;;6184873;28;84694;-67
2021/07/07 04:26:26;;;;;;;16.77;12.23;;;26.40;57.50;;;;;;6177478;28;83394;-67
2021/07/07 04:29:26;;;;;;;21.95;12.18;;;26.50;57.40;;;;;;6171348;28;83863;-68
2021/07/07 04:32:27;;;;;;;30.52;13.48;;;26.50;57.20;;;;;;6176790;28;85038;-68
2021/07/07 04:35:27;;;;;;;14.40;12.00;;;26.50;57.30;;;;;;6174156;28;83268;-66
2021/07/07 04:38:28;;;;;;;14.38;10.93;;;26.40;57.50;;;;;;6170372;28;83073;-67
2021/07/07 04:41:28;;;;;;;14.45;12.23;;;26.50;57.80;;;;;;6177865;28;83592;-66
2021/07/07 04:44:29;;;;;;;20.10;12.40;;;26.50;57.60;;;;;;6176386;28;84385;-66
2021/07/07 04:47:29;;;;;;;17.73;12.18;;;26.50;57.90;;;;;;6174739;28;83893;-67
2021/07/07 04:50:30;;;;;;;18.77;11.88;;;26.50;57.90;;;;;;6168607;28;83066;-66
2021/07/07 04:53:30;;;;;;;18.90;12.57;;;26.50;58.00;;;;;;6174659;28;82872;-67
2021/07/07 04:56:31;;;;;;;21.02;13.30;;;26.50;58.00;;;;;;6177842;28;83173;-68
2021/07/07 04:59:31;;;;;;;16.77;12.02;;;26.50;58.10;;;;;;6177408;28;83276;-69
2021/07/07 05:02:32;;;;;;;17.45;12.25;;;26.60;58.40;;;;;;6177654;28;83390;-70
2021/07/07 05:05:32;;;;;;;23.92;13.45;;;26.60;58.70;;;;;;6177178;28;83834;-68
2021/07/07 05:08:33;;;;;;;17.70;13.20;;;26.60;58.50;;;;;;6166777;28;83513;-69
2021/07/07 05:11:33;;;;;;;18.80;13.43;;;26.60;58.50;;;;;;6178327;28;83232;-69
2021/07/07 05:14:34;;;;;;;22.50;14.25;;;26.60;58.60;;;;;;6177044;28;82810;-68
2021/07/07 05:17:34;;;;;;;100.88;35.67;;;26.60;58.60;;;;;;6174901;28;83263;-68
2021/07/07 05:20:35;;;;;;;316.65;99.25;;;26.60;59.30;;;;;;6184467;28;83430;-67
2021/07/07 05:23:36;;;;;;;473.50;146.52;;;26.60;58.80;;;;;;6168568;28;83436;-68
2021/07/07 05:26:36;;;;;;;459.38;140.75;;;26.60;58.90;;;;;;6172428;28;86136;-69
2021/07/07 05:29:37;;;;;;;455.17;137.55;;;26.60;58.70;;;;;;6174913;28;85800;-68
2021/07/07 05:32:38;;;;;;;384.83;124.30;;;26.60;58.70;;;;;;6172763;28;85863;-67
2021/07/07 05:35:38;;;;;;;385.02;114.40;;;26.60;58.80;;;;;;6172374;28;85545;-68
2021/07/07 05:38:39;;;;;;;207.80;68.72;;;26.60;59.00;;;;;;6154024;28;85435;-67
2021/07/07 05:41:39;;;;;;;168.38;58.22;;;26.60;59.20;;;;;;6160134;28;85304;-67
2021/07/07 05:44:40;;;;;;;162.55;51.88;;;26.70;59.10;;;;;;6163228;28;83297;-67
2021/07/07 05:47:41;;;;;;;149.35;49.35;;;26.70;59.20;;;;;;6160960;28;83271;-67
2021/07/07 05:50:41;;;;;;;123.72;46.72;;;26.70;58.90;;;;;;6157088;28;82991;-67
2021/07/07 05:53:42;;;;;;;118.20;44.30;;;26.70;58.70;;;;;;6158693;28;83466;-68
2021/07/07 05:56:42;;;;;;;95.78;37.80;;;26.70;59.00;;;;;;6163342;28;83384;-69
2021/07/07 05:59:43;;;;;;;90.03;33.75;;;26.80;59.30;;;;;;6163386;28;83407;-69
2021/07/07 06:02:43;;;;;;;82.10;31.30;;;26.70;59.00;;;;;;6168230;28;83256;-69
2021/07/07 06:05:44;;;;;;;85.20;31.52;;;26.70;59.10;;;;;;6174791;28;84414;-68
2021/07/07 06:08:44;;;;;;;104.78;34.65;;;26.80;59.10;;;;;;6164233;28;84248;-69
2021/07/07 06:11:45;;;;;;;516.72;153.20;;;26.70;58.90;;;;;;6171714;28;83055;-67
2021/07/07 06:14:45;;;;;;;601.83;204.68;;;26.70;59.00;;;;;;6176525;28;87605;-66
2021/07/07 06:17:46;;;;;;;584.40;188.65;;;26.70;59.20;;;;;;6178800;28;85714;-67
2021/07/07 06:20:46;;;;;;;612.15;210.82;;;26.70;59.30;;;;;;6177666;28;85896;-66
2021/07/07 06:23:47;;;;;;;623.33;215.13;;;26.80;59.30;;;;;;6175487;28;86456;-66
2021/07/07 06:26:47;;;;;;;556.80;185.60;;;26.80;59.00;;;;;;6178342;28;86408;-67
2021/07/07 06:29:48;;;;;;;528.58;173.27;;;26.80;59.00;;;;;;6174759;28;85293;-67
2021/07/07 06:32:48;;;;;;;415.73;131.38;;;26.80;59.20;;;;;;6176469;28;85860;-67
2021/07/07 06:35:49;;;;;;;373.45;121.43;;;26.80;59.30;;;;;;6168965;28;85524;-67
2021/07/07 06:38:49;;;;;;;346.83;113.25;;;26.80;59.00;;;;;;6177089;28;87401;-65
2021/07/07 06:41:50;;;;;;;247.18;84.22;;;26.80;59.30;;;;;;6191114;28;85762;-65
2021/07/07 06:44:51;;;;;;;231.82;79.57;;;26.70;59.70;;;;;;6177380;28;86059;-66
2021/07/07 06:47:51;;;;;;;207.35;71.90;;;26.70;59.70;;;;;;6177358;28;82807;-65
2021/07/07 06:50:53;;;;;;;201.75;66.22;;;26.70;60.00;;;;;;6179968;28;84321;-66
2021/07/07 06:53:54;;;;;;;171.38;56.45;;;26.70;59.80;;;;;;6177584;28;83776;-65
2021/07/07 06:56:54;;;;;;;150.85;50.70;;;26.70;60.30;;;;;;6166623;28;83400;-66
2021/07/07 06:59:55;;;;;;;120.28;41.95;;;26.80;60.20;;;;;;6176125;28;83082;-65
2021/07/07 07:02:56;;;;;;;89.00;31.45;;;26.80;59.90;;;;;;6179457;28;83929;-66
2021/07/07 07:05:57;;;;;;;67.47;26.83;;;26.80;60.20;;;;;;6178597;28;82888;-65
2021/07/07 07:08:58;;;;;;;71.75;24.58;;;26.80;59.60;;;;;;6179109;28;83354;-66
2021/07/07 07:11:58;;;;;;;47.13;21.77;;;26.90;59.60;;;;;;6178949;28;83256;-66
2021/07/07 07:14:59;;;;;;;43.83;18.55;;;26.80;59.10;;;;;;6178438;28;83044;-64
2021/07/07 07:17:59;;;;;;;33.40;16.92;;;26.80;58.50;;;;;;6175746;28;83241;-66
2021/07/07 07:21:00;;;;;;;27.63;15.77;;;26.90;58.30;;;;;;6168880;28;83854;-66
2021/07/07 07:24:00;;;;;;;26.15;14.20;;;26.90;58.70;;;;;;6179067;28;83222;-67
2021/07/07 07:27:01;;;;;;;28.65;14.90;;;26.90;57.80;;;;;;6174552;28;83106;-66
2021/07/07 07:30:01;;;;;;;23.02;12.70;;;26.90;58.00;;;;;;6179016;28;82973;-66
2021/07/07 07:33:02;;;;;;;18.60;11.10;;;26.90;58.30;;;;;;6178611;28;83453;-65
2021/07/07 07:36:02;;;;;;;16.77;10.88;;;27.00;58.70;;;;;;6194740;28;85774;-66
2021/07/07 07:39:08;;;;;;;13.00;10.00;;;27.00;57.50;;;;;;6174180;28;83520;-67
2021/07/07 07:42:08;;;;;;;15.68;10.23;;;27.00;56.90;;;;;;6169365;28;83275;-67
2021/07/07 07:45:09;;;;;;;17.35;9.70;;;27.00;56.90;;;;;;6177056;28;84268;-67
2021/07/07 07:48:09;;;;;;;16.92;11.27;;;27.00;56.80;;;;;;6166309;28;83151;-67
2021/07/07 07:51:10;;;;;;;14.35;10.25;;;27.00;57.20;;;;;;6160960;28;83759;-66
2021/07/07 07:54:10;;;;;;;17.60;10.52;;;27.10;57.80;;;;;;6162809;28;84471;-69
2021/07/07 07:57:11;;;;;;;12.48;9.45;;;27.10;57.90;;;;;;6164892;28;82954;-65
2021/07/07 08:00:11;;;;;;;14.00;10.02;;;27.10;57.60;;;;;;6164730;28;82946;-66
2021/07/07 08:03:14;;;;;;;13.95;9.95;;;27.10;57.00;;;;;;6161701;28;83075;-66
2021/07/07 08:06:15;;;;;;;16.45;9.15;;;27.10;57.90;;;;;;6164213;28;84381;-67
2021/07/07 08:09:15;;;;;;;13.60;9.32;;;27.10;57.20;;;;;;6167177;28;81364;-69
2021/07/07 08:12:16;;;;;;;10.55;8.20;;;27.10;58.50;;;;;;6170212;28;80567;-67
2021/07/07 08:15:16;;;;;;;13.32;8.70;;;27.20;57.30;;;;;;6182825;28;80522;-66
2021/07/07 08:18:18;;;;;;;12.15;8.60;;;27.20;57.00;;;;;;6181370;28;80742;-66
2021/07/07 08:21:19;;;;;;;14.90;8.10;;;27.20;57.20;;;;;;6178795;28;80580;-67
2021/07/07 08:24:20;;;;;;;12.60;8.20;;;27.20;56.20;;;;;;6177277;28;84882;-66
2021/07/07 08:27:20;;;;;;;10.73;7.93;;;27.30;55.70;;;;;;6176050;28;80638;-66
2021/07/07 08:30:21;;;;;;;13.02;8.23;;;27.30;56.10;;;;;;6180748;28;81680;-67
2021/07/07 08:33:21;;;;;;;10.23;8.13;;;27.30;56.50;;;;;;6173521;28;83026;-67
2021/07/07 08:36:26;;;;;;;8.90;7.88;;;27.20;56.50;;;;;;6169976;28;80888;-66
2021/07/07 08:39:26;;;;;;;9.73;8.32;;;27.30;56.50;;;;;;6181435;28;80514;-65
2021/07/07 08:42:32;;;;;;;9.95;7.93;;;27.30;56.80;;;;;;6179796;28;81487;-66
2021/07/07 08:45:33;;;;;;;9.10;7.90;;;27.30;56.90;;;;;;6180707;28;81109;-66
2021/07/07 08:48:34;;;;;;;10.75;7.70;;;27.30;56.70;;;;;;6182087;28;80459;-66
2021/07/07 08:51:40;;;;;;;10.50;8.00;;;27.30;56.40;;;;;;6179862;28;80822;-66
2021/07/07 08:54:45;;;;;;;8.88;7.10;;;27.20;56.20;;;;;;6171777;28;80577;-66
2021/07/07 08:57:46;;;;;;;9.93;7.53;;;27.30;55.50;;;;;;6169183;28;80445;-66
2021/07/07 09:00:47;;;;;;;8.57;6.18;;;27.30;54.50;;;;;;6176077;28;80615;-66
2021/07/07 09:03:47;;;;;;;11.07;6.18;;;27.30;54.90;;;;;;6180661;28;81182;-64
2021/07/07 09:06:48;;;;;;;9.27;6.72;;;27.30;54.20;;;;;;6180703;28;80146;-66
2021/07/07 09:09:48;;;;;;;9.13;6.30;;;27.20;54.80;;;;;;6175519;28;81062;-66
2021/07/07 09:12:49;;;;;;;8.13;6.72;;;27.30;54.30;;;;;;6176016;28;80344;-66
2021/07/07 09:15:49;;;;;;;12.88;6.45;;;27.30;54.30;;;;;;6170532;28;80342;-66
2021/07/07 09:18:51;;;;;;;11.75;7.05;;;27.30;53.90;;;;;;6177090;28;82120;-66
2021/07/07 09:21:53;;;;;;;8.07;6.57;;;27.30;54.00;;;;;;6176038;28;80619;-66
2021/07/07 09:24:53;;;;;;;10.85;7.47;;;27.40;54.10;;;;;;6176354;28;80415;-67
2021/07/07 09:27:56;;;;;;;10.85;7.55;;;27.40;54.50;;;;;;6175177;28;80454;-68
2021/07/07 09:30:59;;;;;;;10.98;7.60;;;27.30;54.70;;;;;;6178149;28;80677;-67
2021/07/07 09:34:00;;;;;;;9.05;8.10;;;27.40;54.80;;;;;;6177932;28;80422;-66
2021/07/07 09:37:01;;;;;;;9.60;8.10;;;27.30;55.00;;;;;;6171980;28;83321;-66
2021/07/07 09:40:01;;;;;;;9.50;8.05;;;27.30;55.70;;;;;;6178984;28;80550;-65
2021/07/07 09:43:02;;;;;;;10.27;8.15;;;27.30;55.60;;;;;;6179443;28;81050;-66
2021/07/07 09:46:02;;;;;;;17.90;9.07;;;27.30;56.00;;;;;;6181164;28;82178;-67
2021/07/07 09:49:03;;;;;;;12.05;7.90;;;27.30;56.10;;;;;;6181502;28;81294;-66
2021/07/07 09:52:03;;;;;;;14.50;7.68;;;27.40;56.40;;;;;;6183673;28;82713;-67
2021/07/07 09:55:08;;;;;;;11.00;7.90;;;27.40;56.10;;;;;;6183359;28;81792;-66
2021/07/07 09:58:08;;;;;;;11.60;7.72;;;27.30;55.00;;;;;;6183071;28;80693;-66
2021/07/07 10:01:09;;;;;;;9.13;7.78;;;27.40;55.30;;;;;;6184595;28;80650;-66
2021/07/07 10:04:12;;;;;;;9.93;7.82;;;27.40;55.40;;;;;;6184187;28;80412;-67
2021/07/07 10:07:13;;;;;;;12.98;8.32;;;27.40;55.80;;;;;;6182005;28;82954;-66
2021/07/07 10:10:13;;;;;;;9.65;7.35;;;27.40;54.60;;;;;;6184702;28;82802;-66
2021/07/07 10:13:15;;;;;;;12.13;7.88;;;27.40;53.90;;;;;;6184802;28;81476;-65
2021/07/07 10:16:18;;;;;;;12.05;7.85;;;27.40;53.90;;;;;;6177386;28;81008;-67
2021/07/07 10:19:19;;;;;;;9.52;7.97;;;27.40;54.20;;;;;;6185404;28;81265;-65
2021/07/07 10:22:19;;;;;;;10.23;8.18;;;27.40;54.50;;;;;;6171539;28;87272;-65
2021/07/07 10:25:20;;;;;;;8.95;7.68;;;27.40;54.40;;;;;;6178718;28;81210;-65
2021/07/07 10:28:20;;;;;;;9.32;7.85;;;27.40;54.70;;;;;;6183873;28;80914;-64
2021/07/07 10:31:21;;;;;;;10.68;8.05;;;27.40;54.80;;;;;;6183401;28;80088;-65
2021/07/07 10:34:22;;;;;;;9.52;7.40;;;27.40;55.10;;;;;;6184359;28;80671;-65
2021/07/07 10:37:23;;;;;;;9.85;7.82;;;27.40;55.40;;;;;;6172358;28;81436;-66
2021/07/07 10:40:24;;;;;;;9.35;7.88;;;27.40;55.60;;;;;;6177387;28;82622;-66
2021/07/07 10:43:24;;;;;;;8.45;7.57;;;27.40;55.10;;;;;;6173992;28;87768;-66
2021/07/07 10:46:25;;;;;;;13.07;8.30;;;27.40;55.70;;;;;;6183374;28;81581;-66
2021/07/07 10:49:25;;;;;;;8.45;7.53;;;27.50;55.50;;;;;;6175608;28;82178;-65
2021/07/07 10:52:26;;;;;;;14.20;7.45;;;27.50;55.60;;;;;;6182934;28;80240;-64
2021/07/07 10:55:26;;;;;;;14.85;8.30;;;27.50;54.70;;;;;;6182612;28;81574;-66
2021/07/07 10:58:27;;;;;;;8.18;7.38;;;27.50;53.90;;;;;;6175944;28;80535;-66
2021/07/07 11:01:27;;;;;;;10.07;7.97;;;27.40;54.10;;;;;;6174554;28;81279;-66
2021/07/07 11:04:28;;;;;;;13.68;8.32;;;27.50;54.30;;;;;;6173159;28;80400;-66
2021/07/07 11:07:28;;;;;;;9.50;8.30;;;27.50;54.50;;;;;;6174019;28;80804;-65
2021/07/07 11:10:29;;;;;;;8.85;7.95;;;27.60;55.10;;;;;;6176361;28;80503;-66
2021/07/07 11:13:29;;;;;;;7.72;6.93;;;27.70;54.50;;;;;;6174235;28;81473;-65
2021/07/07 11:16:30;;;;;;;8.75;7.07;;;27.80;54.40;;;;;;6168808;28;81410;-66
2021/07/07 11:19:30;;;;;;;8.63;7.25;;;27.70;54.10;;;;;;6174366;28;81564;-66
2021/07/07 11:22:31;;;;;;;8.75;7.22;;;27.80;54.20;;;;;;6165454;28;80259;-66
2021/07/07 11:25:32;;;;;;;8.95;7.03;;;27.70;54.20;;;;;;6168695;28;80869;-66
2021/07/07 11:28:32;;;;;;;9.50;7.90;;;27.70;54.40;;;;;;6167589;28;80831;-66
2021/07/07 11:31:33;;;;;;;9.48;7.22;;;27.80;54.20;;;;;;6169075;28;83095;-67
2021/07/07 11:34:33;;;;;;;8.68;7.43;;;27.80;54.20;;;;;;6168508;28;80745;-67
2021/07/07 11:37:34;;;;;;;8.35;7.40;;;27.70;54.10;;;;;;6169189;28;80706;-66
2021/07/07 11:40:34;;;;;;;9.57;6.95;;;27.70;54.70;;;;;;6180281;28;82245;-65
2021/07/07 11:43:34;;;;;;;8.52;7.25;;;27.70;53.80;;;;;;6172653;28;81378;-63
2021/07/07 11:46:35;;;;;;;9.48;7.38;;;27.70;54.30;;;;;;6181184;28;80545;-66
2021/07/07 11:49:35;;;;;;;7.55;6.60;;;27.70;54.70;;;;;;6180339;28;81394;-66
2021/07/07 11:52:36;;;;;;;12.38;7.10;;;27.90;52.80;;;;;;6180469;28;80973;-66
2021/07/07 11:55:37;;;;;;;10.23;6.97;;;28.00;52.10;;;;;;6173047;28;82101;-66
2021/07/07 11:58:37;;;;;;;8.40;7.30;;;28.00;52.50;;;;;;6168741;28;81976;-66
2021/07/07 12:01:38;;;;;;;8.10;7.13;;;27.90;53.00;;;;;;6179801;28;80873;-66
2021/07/07 12:04:38;;;;;;;10.93;6.72;;;28.00;51.60;;;;;;6179994;28;81953;-66
2021/07/07 12:07:39;;;;;;;8.50;6.68;;;28.30;50.60;;;;;;6174293;28;80508;-66
2021/07/07 12:10:40;;;;;;;7.75;7.00;;;28.30;50.80;;;;;;6178529;28;80562;-66
2021/07/07 12:13:41;;;;;;;7.93;7.13;;;28.30;51.20;;;;;;6170165;28;80423;-65
2021/07/07 12:16:43;;;;;;;8.10;6.50;;;28.50;50.30;;;;;;6170935;28;81219;-65
2021/07/07 12:19:44;;;;;;;8.13;7.30;;;28.50;49.90;;;;;;6166495;28;80622;-66
2021/07/07 12:22:44;;;;;;;7.10;6.40;;;28.50;50.50;;;;;;6180619;28;80471;-66
2021/07/07 12:25:45;;;;;;;8.02;7.22;;;28.40;51.10;;;;;;6168081;28;81762;-66
2021/07/07 12:28:45;;;;;;;13.30;7.28;;;28.30;51.40;;;;;;6179949;28;81784;-66
2021/07/07 12:31:47;;;;;;;9.32;7.10;;;28.30;52.20;;;;;;6174771;28;80859;-66
2021/07/07 12:34:47;;;;;;;9.52;7.57;;;28.40;51.80;;;;;;6171323;28;80322;-66
2021/07/07 12:37:48;;;;;;;11.32;7.13;;;28.40;52.00;;;;;;6172880;28;81784;-66
2021/07/07 12:40:48;;;;;;;8.50;7.43;;;28.30;51.80;;;;;;6181258;28;80699;-66
2021/07/07 12:44:09;;;;;;;7.85;7.03;;;28.20;51.80;;;;;;6174021;28;80454;-66
2021/07/07 12:47:10;;;;;;;7.85;7.05;;;28.10;51.70;;;;;;6181416;28;80465;-66
2021/07/07 12:50:10;;;;;;;8.32;6.78;;;28.10;51.20;;;;;;6176036;28;80748;-66
2021/07/07 12:53:12;;;;;;;9.40;7.57;;;28.10;51.30;;;;;;6174327;28;80781;-66
2021/07/07 12:56:13;;;;;;;8.65;7.38;;;27.90;51.50;;;;;;6173700;28;80516;-66
2021/07/07 12:59:13;;;;;;;7.82;7.13;;;28.10;51.50;;;;;;6171098;28;80769;-66
2021/07/07 13:02:14;;;;;;;7.65;6.80;;;28.00;51.80;;;;;;6178573;28;81318;-66
2021/07/07 13:05:14;;;;;;;9.63;7.03;;;28.00;51.80;;;;;;6180840;28;80643;-66
2021/07/07 13:08:15;;;;;;;7.80;7.00;;;27.90;51.40;;;;;;6174787;28;80861;-66
2021/07/07 13:11:16;;;;;;;9.27;6.93;;;27.90;50.90;;;;;;6167465;28;81571;-65
2021/07/07 13:14:16;;;;;;;8.90;7.05;;;27.90;51.50;;;;;;6176645;28;80173;-66
2021/07/07 13:17:17;;;;;;;9.20;7.22;;;27.80;51.00;;;;;;6172642;28;80856;-65
2021/07/07 13:20:17;;;;;;;8.77;6.78;;;27.90;51.90;;;;;;6175012;28;81445;-65
2021/07/07 13:23:18;;;;;;;8.23;7.07;;;27.90;52.00;;;;;;6175287;28;81656;-65
2021/07/07 13:26:18;;;;;;;7.05;6.32;;;27.90;52.60;;;;;;6162202;28;80777;-66
2021/07/07 13:29:20;;;;;;;8.32;7.07;;;28.00;51.80;;;;;;6176875;28;80410;-66
2021/07/07 13:32:20;;;;;;;10.18;6.90;;;28.10;50.90;;;;;;6171586;28;80376;-66
2021/07/07 13:35:21;;;;;;;9.82;7.07;;;28.10;51.70;;;;;;6174280;28;82240;-66
2021/07/07 13:38:22;;;;;;;9.18;6.72;;;28.00;51.40;;;;;;6180113;28;82132;-66
2021/07/07 13:41:22;;;;;;;7.03;6.30;;;28.00;51.00;;;;;;6181128;28;80522;-66
2021/07/07 13:44:23;;;;;;;7.30;6.60;;;27.90;51.40;;;;;;6195589;28;82066;-66
2021/07/07 13:47:23;;;;;;;8.02;7.22;;;27.90;50.90;;;;;;6170683;28;80632;-64
2021/07/07 13:50:24;;;;;;;9.63;7.22;;;27.90;51.20;;;;;;6169547;28;80420;-65
2021/07/07 13:53:24;;;;;;;8.90;6.88;;;27.90;51.20;;;;;;6176987;28;80763;-65
2021/07/07 13:56:25;;;;;;;8.70;6.40;;;27.90;51.40;;;;;;6175970;28;80513;-65
2021/07/07 13:59:25;;;;;;;9.05;6.85;;;27.80;51.00;;;;;;6174825;28;80793;-66
2021/07/07 14:02:26;;;;;;;7.97;7.18;;;27.80;51.40;;;;;;6169229;28;80373;-67
2021/07/07 14:05:26;;;;;;;9.57;7.40;;;27.80;51.50;;;;;;6182149;28;81135;-67
2021/07/07 14:08:27;;;;;;;8.15;7.20;;;27.80;51.50;;;;;;6172080;28;80386;-67
2021/07/07 14:11:27;;;;;;;8.15;7.13;;;27.80;52.00;;;;;;6180139;28;80458;-67
2021/07/07 14:14:32;;;;;;;8.43;6.95;;;27.80;51.60;;;;;;6179464;28;80070;-66
2021/07/07 14:17:32;;;;;;;8.15;6.70;;;27.80;51.60;;;;;;6184221;28;80429;-66
2021/07/07 14:20:33;;;;;;;10.27;7.30;;;27.80;51.20;;;;;;6178322;28;80545;-67
2021/07/07 14:23:33;;;;;;;9.13;7.72;;;27.80;51.40;;;;;;6170375;28;80514;-66
2021/07/07 14:26:34;;;;;;;8.80;7.53;;;27.80;51.40;;;;;;6180482;28;80572;-66
2021/07/07 14:29:34;;;;;;;9.90;7.07;;;27.80;51.20;;;;;;6172585;28;80870;-66
2021/07/07 14:32:35;;;;;;;7.07;6.38;;;27.80;51.30;;;;;;6177389;28;83175;-69
2021/07/07 14:35:35;;;;;;;9.38;7.43;;;27.90;51.20;;;;;;6172197;28;83003;-66
2021/07/07 14:38:36;;;;;;;7.80;6.63;;;27.90;51.90;;;;;;6171826;28;80515;-67
2021/07/07 14:41:36;;;;;;;7.72;6.68;;;27.90;51.70;;;;;;6181779;28;83348;-67
2021/07/07 14:44:37;;;;;;;8.80;6.55;;;27.90;51.80;;;;;;6181582;28;80415;-66
2021/07/07 14:47:37;;;;;;;9.63;7.32;;;27.90;51.40;;;;;;6176230;28;80634;-68
2021/07/07 14:50:38;;;;;;;8.18;7.32;;;27.80;51.00;;;;;;6181012;28;80334;-67
2021/07/07 14:53:38;;;;;;;7.55;6.72;;;27.80;50.70;;;;;;6177830;28;81345;-68
2021/07/07 14:56:39;;;;;;;10.77;7.53;;;27.80;50.70;;;;;;6173113;28;80512;-68
2021/07/07 14:59:39;;;;;;;7.97;7.15;;;27.90;51.80;;;;;;6169195;28;80205;-67
2021/07/07 15:02:39;;;;;;;8.18;6.50;;;27.90;52.10;;;;;;6169780;28;87077;-68
2021/07/07 15:05:40;;;;;;;10.00;6.72;;;27.90;52.10;;;;;;6167010;28;80282;-67
2021/07/07 15:08:40;;;;;;;8.27;6.63;;;27.90;51.10;;;;;;6185001;28;82029;-67
2021/07/07 15:11:41;;;;;;;7.97;7.10;;;27.90;51.50;;;;;;6165777;28;80848;-67
2021/07/07 15:14:41;;;;;;;8.57;7.13;;;27.90;51.10;;;;;;6166573;28;81549;-67
2021/07/07 15:17:42;;;;;;;8.00;7.20;;;27.90;51.20;;;;;;6165556;28;80698;-67
2021/07/07 15:20:42;;;;;;;7.35;6.38;;;27.90;51.00;;;;;;6168298;28;80519;-67
2021/07/07 15:23:43;;;;;;;12.35;6.97;;;27.90;51.20;;;;;;6170152;28;81437;-67